createdAt,value
2018-12-13T00:00:34.804Z,75.49
2018-12-13T00:03:04.083Z,74.79
2018-12-13T00:05:33.351Z,74.90
2018-12-13T00:08:01.657Z,73.48
2018-12-13T00:10:29.009Z,73.02
2018-12-13T00:12:58.250Z,72.32
2018-12-13T00:15:30.072Z,73.10
2018-12-13T00:17:57.293Z,72.05
2018-12-13T00:20:25.222Z,71.98
2018-12-13T00:22:52.716Z,72.51
2018-12-13T00:25:20.169Z,72.97
2018-12-13T00:27:47.404Z,72.85
2018-12-13T00:30:14.761Z,73.88
2018-12-13T00:32:43.000Z,73.46
2018-12-13T00:35:10.216Z,73.53
2018-12-13T00:37:38.469Z,74.02
2018-12-13T00:40:05.948Z,73.70
2018-12-13T00:42:33.653Z,72.90
2018-12-13T00:45:00.877Z,72.77
2018-12-13T00:47:28.105Z,73.15
2018-12-13T00:49:55.328Z,72.87
2018-12-13T00:52:22.603Z,72.49
2018-12-13T00:54:50.844Z,72.52
2018-12-13T00:57:18.056Z,72.26
2018-12-13T00:59:45.286Z,73.47
2018-12-13T01:02:12.496Z,73.94
2018-12-13T01:04:39.723Z,74.27
2018-12-13T01:07:08.160Z,75.26
2018-12-13T01:09:35.634Z,75.36
2018-12-13T01:12:02.840Z,75.91
2018-12-13T01:14:30.096Z,75.01
2018-12-13T01:16:57.301Z,75.34
2018-12-13T01:19:24.521Z,75.81
2018-12-13T01:21:51.788Z,76.06
2018-12-13T01:27:11.989Z,76.01
2018-12-13T01:29:39.421Z,75.87
2018-12-13T01:32:08.711Z,76.39
2018-12-13T01:34:35.936Z,75.55
2018-12-13T01:37:03.223Z,75.19
2018-12-13T01:39:30.622Z,74.88
2018-12-13T01:41:57.828Z,74.95
2018-12-13T01:47:19.164Z,73.89
2018-12-13T01:49:47.200Z,74.08
2018-12-13T01:52:16.044Z,74.39
2018-12-13T01:54:44.483Z,74.53
2018-12-13T01:57:11.809Z,74.86
2018-12-13T01:59:39.034Z,74.12
2018-12-13T02:02:06.254Z,73.83
2018-12-13T02:04:33.784Z,74.53
2018-12-13T02:07:01.170Z,73.84
2018-12-13T02:09:29.404Z,73.47
2018-12-13T02:11:56.624Z,72.98
2018-12-13T02:14:23.840Z,72.81
2018-12-13T02:16:51.048Z,72.78
2018-12-13T02:19:18.370Z,72.81
2018-12-13T02:21:46.593Z,72.68
2018-12-13T02:24:13.828Z,72.62
2018-12-13T02:26:41.172Z,72.12
2018-12-13T02:29:08.456Z,72.05
2018-12-13T02:31:35.709Z,72.09
2018-12-13T02:34:02.972Z,71.44
2018-12-13T02:36:30.186Z,71.36
2018-12-13T02:38:57.410Z,70.87
2018-12-13T02:41:24.852Z,71.53
2018-12-13T02:43:52.076Z,72.11
2018-12-13T02:46:19.347Z,71.64
2018-12-13T02:48:46.647Z,71.57
2018-12-13T02:51:13.865Z,72.02
2018-12-13T02:53:41.152Z,72.21
2018-12-13T02:56:08.379Z,71.42
2018-12-13T02:58:36.882Z,71.74
2018-12-13T03:01:05.253Z,71.29
2018-12-13T03:03:32.468Z,71.87
2018-12-13T03:05:59.692Z,71.38
2018-12-13T03:08:26.913Z,71.84
2018-12-13T03:10:56.289Z,70.91
2018-12-13T03:13:23.485Z,71.00
2018-12-13T03:15:50.708Z,71.56
2018-12-13T03:18:31.164Z,71.16
2018-12-13T03:20:58.407Z,70.79
2018-12-13T03:23:25.642Z,71.49
2018-12-13T03:25:52.934Z,70.56
2018-12-13T03:28:20.157Z,70.96
2018-12-13T03:30:47.405Z,70.56
2018-12-13T03:33:15.747Z,70.18
2018-12-13T03:35:43.203Z,70.14
2018-12-13T03:38:10.440Z,69.83
2018-12-13T03:40:38.004Z,69.71
2018-12-13T03:43:05.236Z,70.28
2018-12-13T03:45:32.496Z,69.49
2018-12-13T03:47:59.722Z,70.64
2018-12-13T03:50:26.989Z,70.84
2018-12-13T03:52:54.229Z,70.71
2018-12-13T03:55:21.474Z,71.37
2018-12-13T03:57:48.812Z,71.48
2018-12-13T04:00:16.058Z,71.04
2018-12-13T04:02:43.403Z,70.99
2018-12-13T04:05:10.648Z,71.38
2018-12-13T04:07:37.876Z,70.97
2018-12-13T04:10:05.276Z,70.96
2018-12-13T04:12:32.520Z,70.97
2018-12-13T04:14:59.745Z,71.18
2018-12-13T04:17:26.985Z,71.01
2018-12-13T04:19:56.248Z,71.33
2018-12-13T04:22:23.473Z,70.95
2018-12-13T04:24:51.068Z,70.72
2018-12-13T04:27:18.305Z,71.07
2018-12-13T04:29:45.559Z,70.64
2018-12-13T04:32:12.817Z,70.89
2018-12-13T04:34:40.067Z,70.61
2018-12-13T04:37:07.313Z,69.83
2018-12-13T04:39:35.644Z,69.12
2018-12-13T04:42:02.892Z,68.93
2018-12-13T04:44:30.124Z,70.24
2018-12-13T04:46:57.359Z,70.28
2018-12-13T04:49:24.591Z,70.15
2018-12-13T04:51:51.955Z,69.90
2018-12-13T04:54:19.190Z,70.58
2018-12-13T04:56:46.431Z,71.10
2018-12-13T04:59:13.652Z,71.63
2018-12-13T05:01:41.160Z,71.31
2018-12-13T05:04:08.384Z,70.53
2018-12-13T05:06:35.613Z,69.74
2018-12-13T05:09:06.060Z,69.40
2018-12-13T05:11:35.124Z,69.21
2018-12-13T05:14:02.347Z,68.90
2018-12-13T05:16:29.594Z,68.17
2018-12-13T05:18:56.820Z,67.44
2018-12-13T05:21:24.193Z,67.90
2018-12-13T05:23:51.420Z,68.02
2018-12-13T05:26:18.676Z,67.84
2018-12-13T05:28:45.901Z,68.54
2018-12-13T05:31:13.153Z,68.90
2018-12-13T05:33:40.412Z,69.55
2018-12-13T05:36:07.649Z,70.24
2018-12-13T05:38:35.973Z,71.36
2018-12-13T05:41:03.319Z,73.16
2018-12-13T05:43:30.536Z,74.29
2018-12-13T05:45:57.895Z,75.04
2018-12-13T05:48:27.295Z,78.05
2018-12-13T05:50:54.580Z,78.58
2018-12-13T05:53:21.802Z,78.87
2018-12-13T05:55:49.040Z,79.88
2018-12-13T05:58:16.257Z,80.17
2018-12-13T06:00:43.500Z,78.98
2018-12-13T06:03:10.724Z,78.79
2018-12-13T06:05:37.988Z,79.47
2018-12-13T06:08:05.214Z,79.64
2018-12-13T06:10:32.440Z,80.48
2018-12-13T06:12:59.688Z,80.88
2018-12-13T06:15:26.908Z,80.56
2018-12-13T06:17:54.266Z,81.86
2018-12-13T06:20:21.488Z,80.75
2018-12-13T06:22:48.720Z,80.14
2018-12-13T06:25:15.962Z,81.16
2018-12-13T06:27:43.196Z,81.01
2018-12-13T06:30:10.550Z,81.25
2018-12-13T06:32:37.805Z,82.72
2018-12-13T06:35:05.469Z,83.27
2018-12-13T06:37:32.758Z,84.65
2018-12-13T06:39:59.984Z,84.58
2018-12-13T06:42:27.208Z,86.11
2018-12-13T06:44:54.428Z,85.90
2018-12-13T06:47:21.674Z,87.35
2018-12-13T06:49:48.914Z,87.95
2018-12-13T06:52:16.167Z,86.95
2018-12-13T06:54:43.388Z,88.32
2018-12-13T06:57:10.656Z,87.82
2018-12-13T06:59:37.890Z,87.49
2018-12-13T07:02:05.120Z,87.86
2018-12-13T07:04:32.328Z,88.94
2018-12-13T07:06:59.556Z,88.75
2018-12-13T07:09:26.844Z,90.02
2018-12-13T07:11:54.099Z,88.68
2018-12-13T07:17:14.212Z,89.28
2018-12-13T07:19:41.480Z,89.15
2018-12-13T07:22:08.731Z,89.45
2018-12-13T07:24:35.948Z,87.75
2018-12-13T07:27:03.441Z,86.96
2018-12-13T07:29:30.800Z,88.25
2018-12-13T07:31:58.021Z,86.90
2018-12-13T07:34:25.580Z,86.70
2018-12-13T07:36:52.852Z,85.41
2018-12-13T07:39:20.075Z,85.48
2018-12-13T07:41:47.357Z,84.63
2018-12-13T07:44:14.708Z,85.11
2018-12-13T07:46:42.971Z,86.03
2018-12-13T07:49:10.208Z,85.47
2018-12-13T07:51:37.444Z,85.08
2018-12-13T07:54:04.660Z,85.08
2018-12-13T07:56:32.021Z,85.28
2018-12-13T07:58:59.249Z,84.98
2018-12-13T08:01:26.460Z,84.49
2018-12-13T08:03:54.020Z,84.97
2018-12-13T08:06:21.376Z,83.98
2018-12-13T08:08:48.620Z,83.65
2018-12-13T08:11:15.844Z,83.78
2018-12-13T08:13:43.240Z,83.29
2018-12-13T08:16:10.473Z,84.02
2018-12-13T08:18:39.731Z,83.00
2018-12-13T08:21:09.000Z,83.92
2018-12-13T08:23:36.244Z,83.69
2018-12-13T08:26:03.616Z,83.54
2018-12-13T08:28:31.880Z,83.93
2018-12-13T08:30:59.892Z,83.36
2018-12-13T08:33:27.117Z,83.35
2018-12-13T08:35:54.336Z,82.62
2018-12-13T08:38:27.049Z,84.62
2018-12-13T08:43:34.680Z,84.99
2018-12-13T08:46:02.155Z,85.21
2018-12-13T08:48:29.380Z,84.09
2018-12-13T08:50:56.684Z,85.83
2018-12-13T08:53:23.912Z,85.72
2018-12-13T08:55:51.141Z,85.42
2018-12-13T08:58:18.520Z,85.51
2018-12-13T09:00:45.743Z,85.60
2018-12-13T09:03:12.964Z,84.40
2018-12-13T09:05:41.797Z,84.48
2018-12-13T09:08:09.172Z,84.37
2018-12-13T09:10:36.423Z,83.71
2018-12-13T09:13:03.861Z,84.03
2018-12-13T09:15:31.097Z,84.07
2018-12-13T09:17:58.550Z,84.60
2018-12-13T09:20:25.856Z,84.00
2018-12-13T09:22:53.102Z,84.46
2018-12-13T09:25:20.425Z,85.03
2018-12-13T09:27:47.801Z,83.34
2018-12-13T09:30:15.027Z,83.24
2018-12-13T09:32:42.488Z,83.70
2018-12-13T09:35:09.716Z,84.04
2018-12-13T09:37:37.148Z,84.17
2018-12-13T09:40:05.016Z,82.97
2018-12-13T09:42:32.272Z,82.97
2018-12-13T09:44:59.524Z,83.66
2018-12-13T09:47:26.736Z,83.89
2018-12-13T09:49:54.016Z,84.31
2018-12-13T09:52:21.247Z,84.43
2018-12-13T09:54:49.484Z,84.23
2018-12-13T09:57:16.953Z,84.62
2018-12-13T09:59:44.189Z,85.34
2018-12-13T10:02:11.417Z,86.27
2018-12-13T10:04:38.773Z,86.25
2018-12-13T10:07:05.999Z,85.24
2018-12-13T10:09:33.227Z,85.72
2018-12-13T10:12:00.697Z,85.97
2018-12-13T10:14:27.937Z,86.56
2018-12-13T10:16:55.159Z,87.37
2018-12-13T10:19:22.732Z,87.33
2018-12-13T10:21:49.976Z,87.71
2018-12-13T10:24:17.309Z,86.63
2018-12-13T10:26:44.548Z,85.60
2018-12-13T10:29:12.109Z,84.28
2018-12-13T10:31:39.324Z,86.06
2018-12-13T10:34:06.736Z,85.58
2018-12-13T10:36:33.950Z,84.74
2018-12-13T10:39:01.189Z,85.16
2018-12-13T10:41:30.432Z,85.39
2018-12-13T10:43:57.660Z,84.39
2018-12-13T10:46:24.996Z,84.79
2018-12-13T10:48:52.380Z,83.10
2018-12-13T10:51:19.600Z,83.06
2018-12-13T10:53:46.832Z,82.97
2018-12-13T10:56:14.392Z,82.24
2018-12-13T10:58:41.604Z,83.09
2018-12-13T11:01:14.544Z,83.33
2018-12-13T11:03:41.792Z,82.52
2018-12-13T11:06:09.052Z,83.07
2018-12-13T11:08:36.284Z,82.52
2018-12-13T11:11:03.663Z,82.83
2018-12-13T11:13:31.000Z,82.62
2018-12-13T11:15:58.245Z,82.58
2018-12-13T11:18:25.466Z,83.22
2018-12-13T11:20:52.816Z,81.67
2018-12-13T11:23:20.164Z,81.95
2018-12-13T11:25:47.436Z,82.24
2018-12-13T11:28:26.195Z,80.58
2018-12-13T11:30:54.660Z,81.63
2018-12-13T11:33:21.991Z,81.30
2018-12-13T11:35:49.236Z,82.09
2018-12-13T11:38:16.584Z,81.32
2018-12-13T11:40:43.836Z,81.26
2018-12-13T11:43:11.066Z,80.67
2018-12-13T11:45:38.324Z,80.35
2018-12-13T11:48:05.561Z,79.89
2018-12-13T11:50:32.800Z,80.54
2018-12-13T11:53:00.028Z,80.21
2018-12-13T11:55:33.706Z,81.82
2018-12-13T11:58:01.317Z,80.75
2018-12-13T12:00:28.680Z,79.97
2018-12-13T12:02:55.905Z,80.59
2018-12-13T12:05:23.280Z,81.60
2018-12-13T12:07:51.622Z,82.14
2018-12-13T12:10:18.873Z,81.56
2018-12-13T12:12:46.240Z,80.60
2018-12-13T12:15:13.484Z,80.39
2018-12-13T12:17:40.840Z,81.22
2018-12-13T12:20:08.200Z,81.20
2018-12-13T12:22:35.441Z,80.52
2018-12-13T12:25:03.076Z,80.96
2018-12-13T12:27:30.308Z,79.81
2018-12-13T12:29:57.589Z,80.97
2018-12-13T12:32:24.833Z,81.46
2018-12-13T12:34:52.096Z,81.89
2018-12-13T12:37:19.341Z,81.59
2018-12-13T12:39:46.575Z,81.15
2018-12-13T12:42:13.919Z,80.60
2018-12-13T12:44:41.745Z,80.77
2018-12-13T12:47:09.476Z,79.38
2018-12-13T12:49:36.852Z,79.21
2018-12-13T12:52:04.592Z,78.77
2018-12-13T12:54:31.808Z,79.19
2018-12-13T12:56:59.040Z,79.75
2018-12-13T12:59:26.264Z,79.50
2018-12-13T13:01:53.512Z,80.48
2018-12-13T13:04:20.754Z,80.91
2018-12-13T13:06:48.201Z,81.96
2018-12-13T13:09:15.423Z,82.24
2018-12-13T13:11:42.682Z,81.56
2018-12-13T13:14:10.601Z,81.30
2018-12-13T13:16:37.888Z,81.82
2018-12-13T13:19:05.126Z,82.74
2018-12-13T13:21:32.384Z,82.63
2018-12-13T13:24:00.208Z,84.20
2018-12-13T13:26:27.684Z,82.87
2018-12-13T13:28:54.936Z,82.79
2018-12-13T13:31:22.181Z,83.45
2018-12-13T13:33:49.496Z,83.82
2018-12-13T13:36:16.769Z,84.26
2018-12-13T13:38:44.052Z,83.73
2018-12-13T13:41:11.336Z,84.94
2018-12-13T13:43:38.704Z,84.44
2018-12-13T13:46:06.088Z,84.65
2018-12-13T13:48:33.720Z,84.28
2018-12-13T13:51:01.087Z,83.79
2018-12-13T13:53:28.444Z,85.13
2018-12-13T13:55:55.695Z,85.28
2018-12-13T13:58:22.919Z,84.79
2018-12-13T14:00:50.480Z,85.50
2018-12-13T14:03:17.712Z,85.99
2018-12-13T14:05:44.964Z,86.26
2018-12-13T14:08:12.215Z,86.56
2018-12-13T14:10:39.452Z,87.49
2018-12-13T14:13:06.685Z,86.53
2018-12-13T14:15:33.972Z,86.06
2018-12-13T14:18:01.209Z,85.74
2018-12-13T14:20:28.485Z,86.01
2018-12-13T14:22:56.172Z,86.44
2018-12-13T14:25:23.528Z,86.76
2018-12-13T14:27:51.018Z,85.27
2018-12-13T14:30:18.264Z,86.14
2018-12-13T14:32:45.509Z,86.34
2018-12-13T14:35:12.760Z,86.93
2018-12-13T14:37:39.996Z,86.70
2018-12-13T14:40:07.384Z,87.28
2018-12-13T14:42:36.784Z,87.01
2018-12-13T14:45:04.900Z,86.27
2018-12-13T14:47:32.249Z,86.90
2018-12-13T14:49:59.512Z,87.37
2018-12-13T14:52:26.729Z,87.03
2018-12-13T14:54:53.968Z,87.63
2018-12-13T14:57:21.241Z,87.82
2018-12-13T14:59:48.498Z,87.75
2018-12-13T15:02:15.723Z,87.88
2018-12-13T15:04:45.128Z,87.64
2018-12-13T15:07:12.476Z,87.32
2018-12-13T15:09:39.728Z,87.36
2018-12-13T15:12:07.126Z,87.24
2018-12-13T15:14:34.376Z,86.05
2018-12-13T15:17:01.597Z,85.87
2018-12-13T15:19:28.856Z,84.50
2018-12-13T15:21:56.072Z,85.02
2018-12-13T15:24:23.308Z,83.85
2018-12-13T15:26:50.561Z,82.72
2018-12-13T15:29:17.808Z,82.51
2018-12-13T15:31:45.176Z,82.37
2018-12-13T15:34:12.392Z,82.29
2018-12-13T15:36:39.632Z,82.58
2018-12-13T15:39:06.896Z,83.21
2018-12-13T15:41:35.683Z,82.94
2018-12-13T15:44:02.948Z,82.88
2018-12-13T15:46:30.208Z,83.21
2018-12-13T15:48:57.436Z,83.45
2018-12-13T15:51:24.660Z,83.89
2018-12-13T15:53:51.884Z,84.46
2018-12-13T15:56:19.107Z,84.23
2018-12-13T15:58:46.352Z,84.00
2018-12-13T16:01:13.601Z,83.63
2018-12-13T16:03:40.936Z,83.92
2018-12-13T16:06:08.164Z,84.21
2018-12-13T16:08:35.416Z,84.16
2018-12-13T16:11:03.792Z,83.86
2018-12-13T16:13:32.000Z,84.92
2018-12-13T16:15:59.232Z,85.32
2018-12-13T16:18:26.491Z,85.88
2018-12-13T16:20:53.748Z,86.26
2018-12-13T16:23:20.984Z,86.59
2018-12-13T16:25:48.229Z,86.50
2018-12-13T16:28:15.604Z,86.41
2018-12-13T16:30:43.044Z,86.64
2018-12-13T16:33:10.308Z,86.45
2018-12-13T16:35:38.548Z,86.17
2018-12-13T16:38:06.131Z,85.97
2018-12-13T16:40:33.720Z,85.84
2018-12-13T16:43:00.957Z,86.05
2018-12-13T16:45:28.244Z,85.73
2018-12-13T16:47:55.494Z,85.69
2018-12-13T16:50:22.733Z,85.32
2018-12-13T16:52:50.134Z,85.70
2018-12-13T16:55:17.376Z,86.43
2018-12-13T16:57:44.840Z,86.27
2018-12-13T17:00:12.508Z,86.09
2018-12-13T17:02:40.577Z,85.00
2018-12-13T17:05:07.791Z,84.41
2018-12-13T17:07:35.028Z,84.34
2018-12-13T17:10:02.404Z,84.65
2018-12-13T17:12:29.664Z,86.28
2018-12-13T17:14:56.911Z,85.48
2018-12-13T17:17:24.188Z,86.50
2018-12-13T17:19:51.428Z,86.13
2018-12-13T17:22:18.661Z,85.97
2018-12-13T17:24:45.880Z,85.43
2018-12-13T17:27:14.151Z,85.87
2018-12-13T17:29:41.374Z,86.53
2018-12-13T17:32:08.608Z,86.32
2018-12-13T17:34:35.830Z,86.15
2018-12-13T17:37:03.064Z,85.15
2018-12-13T17:39:31.296Z,86.47
2018-12-13T17:41:58.784Z,85.12
2018-12-13T17:44:25.997Z,85.43
2018-12-13T17:46:53.228Z,85.62
2018-12-13T17:49:20.496Z,85.25
2018-12-13T17:51:47.721Z,85.73
2018-12-13T17:54:14.968Z,85.93
2018-12-13T17:56:42.225Z,86.70
2018-12-13T17:59:09.468Z,86.78
2018-12-13T18:01:36.712Z,86.99
2018-12-13T18:04:03.984Z,87.15
2018-12-13T18:06:31.272Z,87.03
2018-12-13T18:08:58.518Z,86.68
2018-12-13T18:11:25.776Z,87.37
2018-12-13T18:13:54.137Z,86.34
2018-12-13T18:16:21.380Z,87.00
2018-12-13T18:18:48.613Z,86.62
2018-12-13T18:21:16.368Z,86.92
2018-12-13T18:23:43.614Z,86.86
2018-12-13T18:26:10.875Z,86.22
2018-12-13T18:28:38.132Z,86.13
2018-12-13T18:31:05.368Z,85.67
2018-12-13T18:33:33.784Z,85.72
2018-12-13T18:36:01.134Z,84.77
2018-12-13T18:38:28.361Z,84.30
2018-12-13T18:40:55.604Z,83.31
2018-12-13T18:43:22.965Z,83.82
2018-12-13T18:45:50.212Z,82.27
2018-12-13T18:48:17.439Z,82.58
2018-12-13T18:50:44.685Z,81.78
2018-12-13T18:53:11.982Z,81.24
2018-12-13T18:55:39.237Z,81.77
2018-12-13T18:58:06.461Z,81.68
2018-12-13T19:00:33.700Z,81.85
2018-12-13T19:03:00.936Z,81.98
2018-12-13T19:05:28.212Z,81.33
2018-12-13T19:07:55.656Z,82.15
2018-12-13T19:10:22.905Z,82.60
2018-12-13T19:12:50.250Z,83.56
2018-12-13T19:15:17.515Z,83.00
2018-12-13T19:17:44.856Z,82.83
2018-12-13T19:20:13.212Z,82.82
2018-12-13T19:22:40.586Z,83.83
2018-12-13T19:25:09.469Z,83.91
2018-12-13T19:27:37.201Z,84.70
2018-12-13T19:30:05.723Z,84.92
2018-12-13T19:32:32.968Z,84.98
2018-12-13T19:35:00.384Z,85.65
2018-12-13T19:37:27.894Z,86.18
2018-12-13T19:39:55.264Z,86.28
2018-12-13T19:42:23.701Z,86.34
2018-12-13T19:44:50.968Z,86.29
2018-12-13T19:47:18.208Z,87.15
2018-12-13T19:49:45.580Z,87.84
2018-12-13T19:52:13.980Z,88.46
2018-12-13T19:54:41.252Z,88.36
2018-12-13T19:57:08.588Z,88.20
2018-12-13T19:59:35.829Z,87.89
2018-12-13T20:02:03.357Z,88.81
2018-12-13T20:04:31.755Z,89.17
2018-12-13T20:06:59.052Z,89.31
2018-12-13T20:09:26.276Z,90.01
2018-12-13T20:11:53.530Z,89.92
2018-12-13T20:14:21.062Z,90.29
2018-12-13T20:16:48.712Z,89.37
2018-12-13T20:19:16.051Z,89.07
2018-12-13T20:21:43.398Z,88.45
2018-12-13T20:24:10.769Z,88.91
2018-12-13T20:26:38.041Z,88.61
2018-12-13T20:29:05.280Z,88.54
2018-12-13T20:31:32.527Z,89.17
2018-12-13T20:33:59.771Z,89.27
2018-12-13T20:36:27.072Z,89.17
2018-12-13T20:38:54.341Z,88.90
2018-12-13T20:41:21.587Z,88.67
2018-12-13T20:43:48.813Z,88.12
2018-12-13T20:46:16.052Z,87.47
2018-12-13T20:48:43.284Z,87.59
2018-12-13T20:51:10.532Z,87.83
2018-12-13T20:53:37.744Z,87.70
2018-12-13T20:56:04.977Z,88.05
2018-12-13T20:58:32.201Z,88.20
2018-12-13T21:00:59.448Z,88.30
2018-12-13T21:03:26.672Z,88.65
2018-12-13T21:05:54.001Z,88.53
2018-12-13T21:08:21.212Z,88.96
2018-12-13T21:10:48.443Z,88.56
2018-12-13T21:13:15.691Z,88.54
2018-12-13T21:15:42.932Z,88.45
2018-12-13T21:18:10.168Z,87.72
2018-12-13T21:20:37.423Z,88.67
2018-12-13T21:23:04.649Z,89.00
2018-12-13T21:25:31.987Z,88.69
2018-12-13T21:27:59.444Z,88.39
2018-12-13T21:30:26.688Z,88.30
2018-12-13T21:32:54.031Z,88.84
2018-12-13T21:35:21.290Z,88.09
2018-12-13T21:37:48.540Z,88.28
2018-12-13T21:40:15.781Z,88.32
2018-12-13T21:42:43.029Z,88.08
2018-12-13T21:45:10.508Z,88.91
2018-12-13T21:47:37.781Z,88.43
2018-12-13T21:50:06.150Z,88.36
2018-12-13T21:52:33.395Z,89.12
2018-12-13T21:55:00.611Z,89.24
2018-12-13T21:57:27.856Z,88.61
2018-12-13T21:59:55.210Z,89.22
2018-12-13T22:02:23.041Z,89.18
2018-12-13T22:07:43.275Z,88.16
2018-12-13T22:10:10.588Z,89.20
2018-12-13T22:12:39.370Z,88.89
2018-12-13T22:15:10.168Z,89.14
2018-12-13T22:17:37.451Z,89.34
2018-12-13T22:20:05.320Z,89.20
2018-12-13T22:22:32.608Z,88.91
2018-12-13T22:24:59.956Z,89.42
2018-12-13T22:27:27.189Z,90.02
2018-12-13T22:29:54.452Z,90.02
2018-12-13T22:32:21.704Z,89.53
2018-12-13T22:34:49.105Z,88.49
2018-12-13T22:37:16.492Z,88.61
2018-12-13T22:39:43.869Z,89.52
2018-12-13T22:42:11.116Z,88.06
2018-12-13T22:44:38.398Z,88.91
2018-12-13T22:47:05.776Z,88.75
2018-12-13T22:49:33.119Z,88.08
2018-12-13T22:52:00.555Z,87.99
2018-12-13T22:54:27.792Z,87.33
2018-12-13T22:56:55.024Z,87.94
2018-12-13T22:59:22.340Z,87.29
2018-12-13T23:01:49.584Z,86.97
2018-12-13T23:04:17.701Z,87.56
2018-12-13T23:06:44.960Z,88.64
2018-12-13T23:09:12.309Z,87.50
2018-12-13T23:11:39.681Z,89.18
2018-12-13T23:14:07.352Z,88.60
2018-12-13T23:16:34.585Z,88.54
2018-12-13T23:19:01.816Z,89.29
2018-12-13T23:21:29.883Z,88.71
2018-12-13T23:23:57.559Z,88.30
2018-12-13T23:26:25.268Z,89.35
2018-12-13T23:28:52.525Z,89.02
2018-12-13T23:31:36.694Z,89.16
2018-12-13T23:34:04.312Z,89.03
2018-12-13T23:36:31.683Z,88.97
2018-12-13T23:38:59.110Z,88.80
2018-12-13T23:41:26.482Z,89.34
2018-12-13T23:43:55.076Z,89.33
2018-12-13T23:46:22.320Z,90.64
2018-12-13T23:48:49.668Z,89.89
2018-12-13T23:51:16.888Z,89.32
2018-12-13T23:53:44.116Z,89.96
2018-12-13T23:56:11.439Z,90.14
2018-12-13T23:58:39.092Z,90.06
